sensor_id;sensor_type;location;lat;lon;timestamp;P1;durP1;ratioP1;P2;durP2;ratioP2
735;SDS011;352;48.626;9.238;2023-03-01T00:01:01;19.35;;;13.18;;
735;SDS011;352;48.626;9.238;2023-03-01T00:03:29;18.45;;;13.43;;
735;SDS011;352;48.626;9.238;2023-03-01T00:05:56;22.23;;;13.18;;
735;SDS011;352;48.626;9.238;2023-03-01T00:08:23;18.00;;;14.07;;
735;SDS011;352;48.626;9.238;2023-03-01T00:10:59;18.98;;;13.25;;
735;SDS011;352;48.626;9.238;2023-03-01T00:13:26;18.30;;;13.43;;
735;SDS011;352;48.626;9.238;2023-03-01T00:15:53;19.15;;;13.40;;
735;SDS011;352;48.626;9.238;2023-03-01T00:18:21;19.13;;;13.10;;
735;SDS011;352;48.626;9.238;2023-03-01T00:20:49;18.25;;;13.32;;
735;SDS011;352;48.626;9.238;2023-03-01T00:23:16;17.10;;;12.85;;
735;SDS011;352;48.626;9.238;2023-03-01T00:25:43;21.13;;;14.20;;
735;SDS011;352;48.626;9.238;2023-03-01T00:28:10;17.73;;;13.48;;
735;SDS011;352;48.626;9.238;2023-03-01T00:30:37;18.80;;;13.98;;
735;SDS011;352;48.626;9.238;2023-03-01T00:33:04;18.67;;;14.05;;
735;SDS011;352;48.626;9.238;2023-03-01T00:35:33;14.45;;;12.55;;
735;SDS011;352;48.626;9.238;2023-03-01T00:37:59;18.10;;;12.55;;
735;SDS011;352;48.626;9.238;2023-03-01T00:40:27;16.00;;;13.45;;
735;SDS011;352;48.626;9.238;2023-03-01T00:42:55;18.73;;;13.25;;
735;SDS011;352;48.626;9.238;2023-03-01T00:45:23;20.65;;;13.48;;
735;SDS011;352;48.626;9.238;2023-03-01T00:47:49;19.40;;;14.15;;
735;SDS011;352;48.626;9.238;2023-03-01T00:50:17;16.85;;;13.52;;
735;SDS011;352;48.626;9.238;2023-03-01T00:52:45;18.45;;;13.52;;
735;SDS011;352;48.626;9.238;2023-03-01T00:55:12;19.40;;;13.90;;
735;SDS011;352;48.626;9.238;2023-03-01T00:57:39;17.98;;;13.90;;
735;SDS011;352;48.626;9.238;2023-03-01T01:00:06;21.58;;;15.02;;
735;SDS011;352;48.626;9.238;2023-03-01T01:02:34;16.20;;;13.50;;
735;SDS011;352;48.626;9.238;2023-03-01T01:05:02;18.10;;;14.55;;
735;SDS011;352;48.626;9.238;2023-03-01T01:07:29;19.05;;;13.73;;
735;SDS011;352;48.626;9.238;2023-03-01T01:09:57;20.25;;;14.50;;
735;SDS011;352;48.626;9.238;2023-03-01T01:12:24;18.23;;;14.50;;
735;SDS011;352;48.626;9.238;2023-03-01T01:14:51;19.23;;;13.48;;
735;SDS011;352;48.626;9.238;2023-03-01T01:17:18;19.40;;;15.23;;
735;SDS011;352;48.626;9.238;2023-03-01T01:19:44;19.85;;;15.05;;
735;SDS011;352;48.626;9.238;2023-03-01T01:22:11;20.48;;;14.98;;
735;SDS011;352;48.626;9.238;2023-03-01T01:24:37;20.70;;;14.68;;
735;SDS011;352;48.626;9.238;2023-03-01T01:27:05;18.58;;;14.63;;
735;SDS011;352;48.626;9.238;2023-03-01T01:29:32;22.25;;;14.80;;
735;SDS011;352;48.626;9.238;2023-03-01T01:31:59;19.15;;;15.75;;
735;SDS011;352;48.626;9.238;2023-03-01T01:34:26;21.10;;;15.38;;
735;SDS011;352;48.626;9.238;2023-03-01T01:36:53;20.13;;;14.20;;
735;SDS011;352;48.626;9.238;2023-03-01T01:39:20;21.52;;;15.18;;
735;SDS011;352;48.626;9.238;2023-03-01T01:41:47;20.60;;;16.05;;
735;SDS011;352;48.626;9.238;2023-03-01T01:44:16;22.60;;;15.02;;
735;SDS011;352;48.626;9.238;2023-03-01T01:46:46;19.92;;;14.55;;
735;SDS011;352;48.626;9.238;2023-03-01T01:49:17;21.42;;;15.88;;
735;SDS011;352;48.626;9.238;2023-03-01T01:51:49;22.88;;;15.10;;
735;SDS011;352;48.626;9.238;2023-03-01T01:54:22;22.73;;;15.10;;
735;SDS011;352;48.626;9.238;2023-03-01T01:56:52;23.15;;;15.60;;
735;SDS011;352;48.626;9.238;2023-03-01T01:59:23;22.73;;;14.95;;
735;SDS011;352;48.626;9.238;2023-03-01T02:01:51;17.23;;;13.80;;
735;SDS011;352;48.626;9.238;2023-03-01T02:04:19;21.15;;;14.20;;
735;SDS011;352;48.626;9.238;2023-03-01T02:06:48;19.40;;;14.32;;
735;SDS011;352;48.626;9.238;2023-03-01T02:09:17;18.20;;;14.35;;
735;SDS011;352;48.626;9.238;2023-03-01T02:11:46;19.20;;;13.75;;
735;SDS011;352;48.626;9.238;2023-03-01T02:14:14;21.52;;;15.50;;
735;SDS011;352;48.626;9.238;2023-03-01T02:16:42;18.15;;;13.52;;
735;SDS011;352;48.626;9.238;2023-03-01T02:19:09;19.45;;;14.35;;
735;SDS011;352;48.626;9.238;2023-03-01T02:21:48;18.90;;;15.05;;
735;SDS011;352;48.626;9.238;2023-03-01T02:24:24;19.98;;;14.15;;
735;SDS011;352;48.626;9.238;2023-03-01T02:26:59;20.30;;;14.52;;
735;SDS011;352;48.626;9.238;2023-03-01T02:29:28;21.33;;;14.60;;
735;SDS011;352;48.626;9.238;2023-03-01T02:31:56;22.35;;;14.95;;
735;SDS011;352;48.626;9.238;2023-03-01T02:34:25;19.65;;;15.43;;
735;SDS011;352;48.626;9.238;2023-03-01T02:36:53;20.15;;;14.32;;
735;SDS011;352;48.626;9.238;2023-03-01T02:39:24;23.65;;;14.70;;
735;SDS011;352;48.626;9.238;2023-03-01T02:41:55;21.58;;;14.55;;
735;SDS011;352;48.626;9.238;2023-03-01T02:44:24;23.67;;;14.75;;
735;SDS011;352;48.626;9.238;2023-03-01T02:46:53;18.63;;;13.48;;
735;SDS011;352;48.626;9.238;2023-03-01T02:49:23;18.83;;;13.48;;
735;SDS011;352;48.626;9.238;2023-03-01T02:52:14;19.75;;;14.50;;
735;SDS011;352;48.626;9.238;2023-03-01T02:54:58;19.70;;;14.20;;
735;SDS011;352;48.626;9.238;2023-03-01T02:57:27;18.17;;;14.13;;
735;SDS011;352;48.626;9.238;2023-03-01T02:59:56;18.85;;;14.63;;
735;SDS011;352;48.626;9.238;2023-03-01T03:02:28;18.90;;;14.90;;
735;SDS011;352;48.626;9.238;2023-03-01T03:05:03;19.23;;;14.38;;
735;SDS011;352;48.626;9.238;2023-03-01T03:07:31;21.08;;;14.68;;
735;SDS011;352;48.626;9.238;2023-03-01T03:09:58;20.70;;;14.27;;
735;SDS011;352;48.626;9.238;2023-03-01T03:12:25;21.90;;;14.18;;
735;SDS011;352;48.626;9.238;2023-03-01T03:14:52;21.45;;;15.07;;
735;SDS011;352;48.626;9.238;2023-03-01T03:17:19;17.42;;;13.82;;
735;SDS011;352;48.626;9.238;2023-03-01T03:19:47;21.05;;;15.27;;
735;SDS011;352;48.626;9.238;2023-03-01T03:22:14;20.63;;;15.13;;
735;SDS011;352;48.626;9.238;2023-03-01T03:24:40;21.00;;;14.80;;
735;SDS011;352;48.626;9.238;2023-03-01T03:27:07;19.73;;;13.93;;
735;SDS011;352;48.626;9.238;2023-03-01T03:29:34;18.08;;;14.02;;
735;SDS011;352;48.626;9.238;2023-03-01T03:32:01;17.73;;;14.90;;
735;SDS011;352;48.626;9.238;2023-03-01T03:34:28;19.80;;;14.25;;
735;SDS011;352;48.626;9.238;2023-03-01T03:36:56;18.63;;;13.93;;
735;SDS011;352;48.626;9.238;2023-03-01T03:39:24;17.40;;;13.68;;
735;SDS011;352;48.626;9.238;2023-03-01T03:41:51;20.17;;;15.20;;
735;SDS011;352;48.626;9.238;2023-03-01T03:44:18;23.50;;;15.80;;
735;SDS011;352;48.626;9.238;2023-03-01T03:46:44;20.02;;;14.65;;
735;SDS011;352;48.626;9.238;2023-03-01T03:49:11;22.23;;;14.00;;
735;SDS011;352;48.626;9.238;2023-03-01T03:51:38;22.15;;;14.70;;
735;SDS011;352;48.626;9.238;2023-03-01T03:54:06;20.80;;;15.13;;
735;SDS011;352;48.626;9.238;2023-03-01T03:56:32;19.02;;;13.57;;
735;SDS011;352;48.626;9.238;2023-03-01T03:58:59;17.95;;;13.95;;
735;SDS011;352;48.626;9.238;2023-03-01T04:01:26;19.92;;;14.75;;
735;SDS011;352;48.626;9.238;2023-03-01T04:03:53;23.80;;;16.15;;
735;SDS011;352;48.626;9.238;2023-03-01T04:06:20;20.75;;;15.60;;
735;SDS011;352;48.626;9.238;2023-03-01T04:08:47;21.67;;;13.73;;
735;SDS011;352;48.626;9.238;2023-03-01T04:11:17;21.73;;;15.27;;
735;SDS011;352;48.626;9.238;2023-03-01T04:13:53;20.77;;;14.80;;
735;SDS011;352;48.626;9.238;2023-03-01T04:16:22;20.25;;;14.23;;
735;SDS011;352;48.626;9.238;2023-03-01T04:18:48;21.23;;;16.65;;
735;SDS011;352;48.626;9.238;2023-03-01T04:21:15;18.10;;;13.95;;
735;SDS011;352;48.626;9.238;2023-03-01T04:23:42;18.85;;;14.95;;
735;SDS011;352;48.626;9.238;2023-03-01T04:26:09;21.02;;;16.13;;
735;SDS011;352;48.626;9.238;2023-03-01T04:28:38;23.55;;;15.15;;
735;SDS011;352;48.626;9.238;2023-03-01T04:31:08;25.85;;;17.50;;
735;SDS011;352;48.626;9.238;2023-03-01T04:33:38;19.23;;;14.57;;
735;SDS011;352;48.626;9.238;2023-03-01T04:36:06;21.08;;;14.70;;
735;SDS011;352;48.626;9.238;2023-03-01T04:38:34;23.90;;;16.27;;
735;SDS011;352;48.626;9.238;2023-03-01T04:41:02;22.95;;;15.45;;
735;SDS011;352;48.626;9.238;2023-03-01T04:43:29;21.60;;;14.15;;
735;SDS011;352;48.626;9.238;2023-03-01T04:46:01;20.15;;;13.85;;
735;SDS011;352;48.626;9.238;2023-03-01T04:48:28;22.17;;;14.88;;
735;SDS011;352;48.626;9.238;2023-03-01T04:50:56;25.52;;;16.38;;
735;SDS011;352;48.626;9.238;2023-03-01T04:53:23;23.58;;;15.85;;
735;SDS011;352;48.626;9.238;2023-03-01T04:55:50;21.42;;;16.00;;
735;SDS011;352;48.626;9.238;2023-03-01T04:58:17;20.65;;;15.82;;
735;SDS011;352;48.626;9.238;2023-03-01T05:00:44;22.65;;;14.75;;
735;SDS011;352;48.626;9.238;2023-03-01T05:03:12;21.08;;;15.00;;
735;SDS011;352;48.626;9.238;2023-03-01T05:05:43;22.70;;;14.57;;
735;SDS011;352;48.626;9.238;2023-03-01T05:08:11;22.27;;;16.50;;
735;SDS011;352;48.626;9.238;2023-03-01T05:10:42;21.23;;;15.68;;
735;SDS011;352;48.626;9.238;2023-03-01T05:13:11;23.58;;;15.00;;
735;SDS011;352;48.626;9.238;2023-03-01T05:15:40;22.35;;;16.58;;
735;SDS011;352;48.626;9.238;2023-03-01T05:18:06;21.75;;;15.30;;
735;SDS011;352;48.626;9.238;2023-03-01T05:20:37;22.08;;;16.33;;
735;SDS011;352;48.626;9.238;2023-03-01T05:23:04;24.42;;;15.95;;
735;SDS011;352;48.626;9.238;2023-03-01T05:25:31;21.38;;;15.43;;
735;SDS011;352;48.626;9.238;2023-03-01T05:27:59;21.83;;;15.25;;
735;SDS011;352;48.626;9.238;2023-03-01T05:30:29;24.60;;;17.00;;
735;SDS011;352;48.626;9.238;2023-03-01T05:32:56;21.48;;;16.15;;
735;SDS011;352;48.626;9.238;2023-03-01T05:35:23;23.63;;;16.67;;
735;SDS011;352;48.626;9.238;2023-03-01T05:37:51;23.17;;;16.60;;
735;SDS011;352;48.626;9.238;2023-03-01T05:40:18;22.70;;;16.88;;
735;SDS011;352;48.626;9.238;2023-03-01T05:42:46;21.48;;;15.00;;
735;SDS011;352;48.626;9.238;2023-03-01T05:45:14;20.75;;;15.90;;
735;SDS011;352;48.626;9.238;2023-03-01T05:47:43;25.38;;;17.52;;
735;SDS011;352;48.626;9.238;2023-03-01T05:50:12;25.55;;;17.63;;
735;SDS011;352;48.626;9.238;2023-03-01T05:52:44;25.60;;;17.85;;
735;SDS011;352;48.626;9.238;2023-03-01T05:55:12;22.83;;;17.27;;
735;SDS011;352;48.626;9.238;2023-03-01T05:57:39;26.75;;;17.35;;
735;SDS011;352;48.626;9.238;2023-03-01T06:00:06;25.70;;;18.20;;
735;SDS011;352;48.626;9.238;2023-03-01T06:02:34;24.30;;;16.70;;
735;SDS011;352;48.626;9.238;2023-03-01T06:05:00;25.00;;;17.52;;
735;SDS011;352;48.626;9.238;2023-03-01T06:07:27;22.45;;;16.92;;
735;SDS011;352;48.626;9.238;2023-03-01T06:09:54;25.25;;;16.90;;
735;SDS011;352;48.626;9.238;2023-03-01T06:12:22;22.63;;;15.93;;
735;SDS011;352;48.626;9.238;2023-03-01T06:14:48;23.73;;;15.82;;
735;SDS011;352;48.626;9.238;2023-03-01T06:17:15;21.80;;;16.33;;
735;SDS011;352;48.626;9.238;2023-03-01T06:19:42;21.05;;;15.23;;
735;SDS011;352;48.626;9.238;2023-03-01T06:22:08;22.33;;;15.05;;
735;SDS011;352;48.626;9.238;2023-03-01T06:24:35;22.20;;;15.77;;
735;SDS011;352;48.626;9.238;2023-03-01T06:27:02;24.05;;;16.58;;
735;SDS011;352;48.626;9.238;2023-03-01T06:29:30;21.45;;;15.95;;
735;SDS011;352;48.626;9.238;2023-03-01T06:31:57;20.92;;;15.55;;
735;SDS011;352;48.626;9.238;2023-03-01T06:34:24;23.80;;;16.85;;
735;SDS011;352;48.626;9.238;2023-03-01T06:36:50;24.00;;;15.98;;
735;SDS011;352;48.626;9.238;2023-03-01T06:39:17;21.00;;;16.17;;
735;SDS011;352;48.626;9.238;2023-03-01T06:41:44;23.75;;;17.67;;
735;SDS011;352;48.626;9.238;2023-03-01T06:44:10;20.67;;;16.38;;
735;SDS011;352;48.626;9.238;2023-03-01T06:46:39;23.75;;;16.65;;
735;SDS011;352;48.626;9.238;2023-03-01T06:49:06;22.63;;;15.57;;
735;SDS011;352;48.626;9.238;2023-03-01T06:51:34;26.20;;;18.15;;
735;SDS011;352;48.626;9.238;2023-03-01T06:54:01;23.75;;;16.35;;
735;SDS011;352;48.626;9.238;2023-03-01T06:56:28;22.50;;;16.52;;
735;SDS011;352;48.626;9.238;2023-03-01T06:58:55;30.00;;;18.33;;
735;SDS011;352;48.626;9.238;2023-03-01T07:01:22;26.38;;;17.30;;
735;SDS011;352;48.626;9.238;2023-03-01T07:03:50;23.20;;;17.13;;
735;SDS011;352;48.626;9.238;2023-03-01T07:06:16;24.55;;;17.40;;
735;SDS011;352;48.626;9.238;2023-03-01T07:08:44;24.15;;;17.73;;
735;SDS011;352;48.626;9.238;2023-03-01T07:11:11;23.77;;;16.50;;
735;SDS011;352;48.626;9.238;2023-03-01T07:13:37;22.40;;;14.90;;
735;SDS011;352;48.626;9.238;2023-03-01T07:16:04;20.73;;;15.43;;
735;SDS011;352;48.626;9.238;2023-03-01T07:18:32;23.85;;;15.65;;
735;SDS011;352;48.626;9.238;2023-03-01T07:21:04;25.65;;;16.98;;
735;SDS011;352;48.626;9.238;2023-03-01T07:23:32;19.67;;;15.43;;
735;SDS011;352;48.626;9.238;2023-03-01T07:25:59;25.60;;;17.08;;
735;SDS011;352;48.626;9.238;2023-03-01T07:28:26;23.38;;;16.48;;
735;SDS011;352;48.626;9.238;2023-03-01T07:30:54;21.90;;;17.38;;
735;SDS011;352;48.626;9.238;2023-03-01T07:33:21;23.65;;;14.85;;
735;SDS011;352;48.626;9.238;2023-03-01T07:35:48;23.83;;;17.05;;
735;SDS011;352;48.626;9.238;2023-03-01T07:38:16;22.52;;;16.85;;
735;SDS011;352;48.626;9.238;2023-03-01T07:40:42;21.35;;;14.93;;
735;SDS011;352;48.626;9.238;2023-03-01T07:43:09;19.05;;;12.70;;
735;SDS011;352;48.626;9.238;2023-03-01T07:45:36;23.15;;;16.63;;
735;SDS011;352;48.626;9.238;2023-03-01T07:48:03;20.15;;;13.02;;
735;SDS011;352;48.626;9.238;2023-03-01T07:50:29;24.27;;;13.02;;
735;SDS011;352;48.626;9.238;2023-03-01T07:52:56;22.38;;;13.23;;
735;SDS011;352;48.626;9.238;2023-03-01T07:55:24;27.00;;;12.57;;
735;SDS011;352;48.626;9.238;2023-03-01T07:57:51;20.73;;;14.10;;
735;SDS011;352;48.626;9.238;2023-03-01T08:00:18;21.52;;;14.02;;
735;SDS011;352;48.626;9.238;2023-03-01T08:02:45;19.92;;;13.25;;
735;SDS011;352;48.626;9.238;2023-03-01T08:05:12;17.88;;;11.30;;
735;SDS011;352;48.626;9.238;2023-03-01T08:07:39;19.17;;;12.77;;
735;SDS011;352;48.626;9.238;2023-03-01T08:10:05;19.95;;;14.20;;
735;SDS011;352;48.626;9.238;2023-03-01T08:12:34;23.10;;;14.73;;
735;SDS011;352;48.626;9.238;2023-03-01T08:15:00;23.75;;;14.30;;
735;SDS011;352;48.626;9.238;2023-03-01T08:17:27;20.50;;;12.85;;
735;SDS011;352;48.626;9.238;2023-03-01T08:19:54;19.55;;;13.35;;
735;SDS011;352;48.626;9.238;2023-03-01T08:22:20;19.92;;;14.55;;
735;SDS011;352;48.626;9.238;2023-03-01T08:24:47;22.20;;;11.93;;
735;SDS011;352;48.626;9.238;2023-03-01T08:27:14;22.33;;;14.90;;
735;SDS011;352;48.626;9.238;2023-03-01T08:29:43;24.98;;;16.13;;
735;SDS011;352;48.626;9.238;2023-03-01T08:32:10;22.67;;;16.25;;
735;SDS011;352;48.626;9.238;2023-03-01T08:34:36;21.98;;;14.57;;
735;SDS011;352;48.626;9.238;2023-03-01T08:37:03;20.83;;;13.70;;
735;SDS011;352;48.626;9.238;2023-03-01T08:39:30;22.33;;;13.45;;
735;SDS011;352;48.626;9.238;2023-03-01T08:41:56;18.48;;;14.15;;
735;SDS011;352;48.626;9.238;2023-03-01T08:44:23;15.00;;;10.75;;
735;SDS011;352;48.626;9.238;2023-03-01T08:46:51;19.27;;;13.07;;
735;SDS011;352;48.626;9.238;2023-03-01T08:49:20;20.33;;;13.60;;
735;SDS011;352;48.626;9.238;2023-03-01T08:51:48;18.60;;;14.38;;
735;SDS011;352;48.626;9.238;2023-03-01T08:54:16;20.35;;;15.82;;
735;SDS011;352;48.626;9.238;2023-03-01T08:56:44;21.63;;;14.30;;
735;SDS011;352;48.626;9.238;2023-03-01T08:59:11;21.48;;;13.60;;
735;SDS011;352;48.626;9.238;2023-03-01T09:01:39;34.10;;;22.00;;
735;SDS011;352;48.626;9.238;2023-03-01T09:04:09;26.55;;;18.48;;
735;SDS011;352;48.626;9.238;2023-03-01T09:06:36;20.38;;;15.88;;
735;SDS011;352;48.626;9.238;2023-03-01T09:09:03;20.70;;;14.60;;
735;SDS011;352;48.626;9.238;2023-03-01T09:11:31;19.27;;;14.60;;
735;SDS011;352;48.626;9.238;2023-03-01T09:13:59;19.60;;;14.73;;
735;SDS011;352;48.626;9.238;2023-03-01T09:16:25;21.57;;;16.10;;
735;SDS011;352;48.626;9.238;2023-03-01T09:18:54;19.10;;;16.13;;
735;SDS011;352;48.626;9.238;2023-03-01T09:21:23;18.50;;;15.17;;
735;SDS011;352;48.626;9.238;2023-03-01T09:23:50;19.77;;;15.57;;
735;SDS011;352;48.626;9.238;2023-03-01T09:26:17;19.80;;;16.40;;
735;SDS011;352;48.626;9.238;2023-03-01T09:28:46;18.00;;;14.70;;
735;SDS011;352;48.626;9.238;2023-03-01T09:31:14;21.27;;;16.53;;
735;SDS011;352;48.626;9.238;2023-03-01T09:33:42;18.50;;;14.70;;
735;SDS011;352;48.626;9.238;2023-03-01T09:36:12;18.23;;;14.00;;
735;SDS011;352;48.626;9.238;2023-03-01T09:38:41;19.17;;;16.17;;
735;SDS011;352;48.626;9.238;2023-03-01T09:41:09;21.97;;;15.17;;
735;SDS011;352;48.626;9.238;2023-03-01T09:43:46;18.50;;;14.90;;
735;SDS011;352;48.626;9.238;2023-03-01T09:46:19;16.87;;;14.97;;
735;SDS011;352;48.626;9.238;2023-03-01T09:48:48;20.57;;;16.57;;
735;SDS011;352;48.626;9.238;2023-03-01T09:51:19;20.20;;;16.73;;
735;SDS011;352;48.626;9.238;2023-03-01T09:53:53;20.90;;;16.63;;
735;SDS011;352;48.626;9.238;2023-03-01T09:56:23;19.17;;;15.97;;
735;SDS011;352;48.626;9.238;2023-03-01T09:58:56;20.40;;;15.97;;
735;SDS011;352;48.626;9.238;2023-03-01T10:01:33;20.67;;;16.77;;
735;SDS011;352;48.626;9.238;2023-03-01T10:04:11;21.93;;;15.50;;
735;SDS011;352;48.626;9.238;2023-03-01T10:06:47;17.40;;;15.57;;
735;SDS011;352;48.626;9.238;2023-03-01T10:09:25;23.83;;;17.20;;
735;SDS011;352;48.626;9.238;2023-03-01T10:11:55;18.57;;;16.30;;
735;SDS011;352;48.626;9.238;2023-03-01T10:14:27;17.83;;;15.67;;
735;SDS011;352;48.626;9.238;2023-03-01T10:16:59;17.63;;;15.80;;
735;SDS011;352;48.626;9.238;2023-03-01T10:19:30;20.40;;;15.20;;
735;SDS011;352;48.626;9.238;2023-03-01T10:22:02;19.40;;;16.03;;
735;SDS011;352;48.626;9.238;2023-03-01T10:24:37;18.47;;;15.50;;
735;SDS011;352;48.626;9.238;2023-03-01T10:27:04;18.50;;;16.50;;
735;SDS011;352;48.626;9.238;2023-03-01T10:29:37;20.70;;;16.63;;
735;SDS011;352;48.626;9.238;2023-03-01T10:32:08;17.13;;;15.10;;
735;SDS011;352;48.626;9.238;2023-03-01T10:34:36;20.20;;;15.90;;
735;SDS011;352;48.626;9.238;2023-03-01T10:37:08;17.77;;;14.90;;
735;SDS011;352;48.626;9.238;2023-03-01T10:39:38;23.23;;;17.27;;
735;SDS011;352;48.626;9.238;2023-03-01T10:42:23;18.07;;;16.17;;
735;SDS011;352;48.626;9.238;2023-03-01T10:44:55;17.23;;;14.17;;
735;SDS011;352;48.626;9.238;2023-03-01T10:47:22;20.87;;;16.17;;
735;SDS011;352;48.626;9.238;2023-03-01T10:49:54;18.00;;;14.50;;
735;SDS011;352;48.626;9.238;2023-03-01T10:52:27;19.80;;;15.33;;
735;SDS011;352;48.626;9.238;2023-03-01T10:54:58;17.07;;;14.70;;
735;SDS011;352;48.626;9.238;2023-03-01T10:57:30;20.20;;;15.80;;
735;SDS011;352;48.626;9.238;2023-03-01T11:00:16;17.53;;;15.47;;
735;SDS011;352;48.626;9.238;2023-03-01T11:02:51;20.30;;;16.13;;
735;SDS011;352;48.626;9.238;2023-03-01T11:05:29;18.00;;;14.60;;
735;SDS011;352;48.626;9.238;2023-03-01T11:07:58;17.40;;;15.17;;
735;SDS011;352;48.626;9.238;2023-03-01T11:10:28;18.30;;;14.90;;
735;SDS011;352;48.626;9.238;2023-03-01T11:13:05;19.43;;;14.90;;
735;SDS011;352;48.626;9.238;2023-03-01T11:15:33;17.47;;;15.50;;
735;SDS011;352;48.626;9.238;2023-03-01T11:18:00;17.73;;;13.73;;
735;SDS011;352;48.626;9.238;2023-03-01T11:20:29;13.70;;;12.30;;
735;SDS011;352;48.626;9.238;2023-03-01T11:22:58;20.00;;;15.47;;
735;SDS011;352;48.626;9.238;2023-03-01T11:25:31;20.00;;;15.50;;
735;SDS011;352;48.626;9.238;2023-03-01T11:28:01;19.33;;;16.00;;
735;SDS011;352;48.626;9.238;2023-03-01T11:30:31;18.93;;;15.80;;
735;SDS011;352;48.626;9.238;2023-03-01T11:33:04;21.83;;;13.97;;
735;SDS011;352;48.626;9.238;2023-03-01T11:35:41;17.30;;;15.53;;
735;SDS011;352;48.626;9.238;2023-03-01T11:38:15;16.20;;;13.77;;
735;SDS011;352;48.626;9.238;2023-03-01T11:40:47;17.67;;;14.40;;
735;SDS011;352;48.626;9.238;2023-03-01T11:43:20;17.10;;;13.73;;
735;SDS011;352;48.626;9.238;2023-03-01T11:45:54;15.60;;;13.17;;
735;SDS011;352;48.626;9.238;2023-03-01T11:48:44;18.87;;;15.20;;
735;SDS011;352;48.626;9.238;2023-03-01T11:51:21;17.25;;;13.25;;
735;SDS011;352;48.626;9.238;2023-03-01T11:53:58;17.00;;;12.73;;
735;SDS011;352;48.626;9.238;2023-03-01T11:56:34;16.17;;;12.32;;
735;SDS011;352;48.626;9.238;2023-03-01T11:59:08;16.55;;;12.80;;
735;SDS011;352;48.626;9.238;2023-03-01T12:01:55;16.35;;;12.07;;
735;SDS011;352;48.626;9.238;2023-03-01T12:04:36;17.38;;;11.30;;
735;SDS011;352;48.626;9.238;2023-03-01T12:07:26;15.95;;;11.75;;
735;SDS011;352;48.626;9.238;2023-03-01T12:10:10;16.73;;;13.30;;
735;SDS011;352;48.626;9.238;2023-03-01T12:12:50;18.05;;;13.18;;
735;SDS011;352;48.626;9.238;2023-03-01T12:15:50;17.50;;;11.90;;
735;SDS011;352;48.626;9.238;2023-03-01T12:18:38;14.57;;;11.90;;
735;SDS011;352;48.626;9.238;2023-03-01T12:21:20;16.65;;;12.93;;
735;SDS011;352;48.626;9.238;2023-03-01T12:26:52;16.52;;;13.25;;
735;SDS011;352;48.626;9.238;2023-03-01T12:29:34;17.65;;;12.93;;
735;SDS011;352;48.626;9.238;2023-03-01T12:38:06;15.73;;;12.75;;
735;SDS011;352;48.626;9.238;2023-03-01T12:43:38;13.93;;;10.35;;
735;SDS011;352;48.626;9.238;2023-03-01T12:46:24;18.02;;;13.07;;
735;SDS011;352;48.626;9.238;2023-03-01T12:49:02;18.48;;;13.65;;
735;SDS011;352;48.626;9.238;2023-03-01T12:51:35;21.33;;;13.23;;
735;SDS011;352;48.626;9.238;2023-03-01T12:54:05;10.40;;;8.43;;
735;SDS011;352;48.626;9.238;2023-03-01T12:56:38;18.08;;;13.70;;
735;SDS011;352;48.626;9.238;2023-03-01T12:59:08;19.23;;;13.23;;
735;SDS011;352;48.626;9.238;2023-03-01T13:01:42;12.70;;;9.50;;
735;SDS011;352;48.626;9.238;2023-03-01T13:04:24;25.20;;;12.85;;
735;SDS011;352;48.626;9.238;2023-03-01T13:07:15;19.15;;;13.32;;
735;SDS011;352;48.626;9.238;2023-03-01T13:09:51;16.80;;;11.98;;
735;SDS011;352;48.626;9.238;2023-03-01T13:12:47;19.50;;;13.75;;
735;SDS011;352;48.626;9.238;2023-03-01T13:15:25;14.57;;;11.05;;
735;SDS011;352;48.626;9.238;2023-03-01T13:17:55;13.77;;;10.48;;
735;SDS011;352;48.626;9.238;2023-03-01T13:20:23;19.00;;;13.82;;
735;SDS011;352;48.626;9.238;2023-03-01T13:23:01;16.00;;;12.13;;
735;SDS011;352;48.626;9.238;2023-03-01T13:25:39;19.13;;;12.73;;
735;SDS011;352;48.626;9.238;2023-03-01T13:34:40;15.38;;;11.80;;
735;SDS011;352;48.626;9.238;2023-03-01T13:37:25;17.92;;;11.70;;
735;SDS011;352;48.626;9.238;2023-03-01T13:39:55;21.13;;;12.10;;
735;SDS011;352;48.626;9.238;2023-03-01T13:42:35;17.98;;;12.95;;
735;SDS011;352;48.626;9.238;2023-03-01T13:45:12;17.27;;;12.63;;
735;SDS011;352;48.626;9.238;2023-03-01T13:47:46;19.17;;;13.57;;
735;SDS011;352;48.626;9.238;2023-03-01T13:50:18;18.63;;;12.95;;
735;SDS011;352;48.626;9.238;2023-03-01T13:52:48;15.73;;;12.20;;
735;SDS011;352;48.626;9.238;2023-03-01T13:55:19;20.92;;;13.43;;
735;SDS011;352;48.626;9.238;2023-03-01T13:57:51;15.40;;;12.40;;
735;SDS011;352;48.626;9.238;2023-03-01T14:00:26;24.25;;;12.88;;
735;SDS011;352;48.626;9.238;2023-03-01T14:03:00;21.75;;;14.30;;
735;SDS011;352;48.626;9.238;2023-03-01T14:05:37;18.52;;;12.35;;
735;SDS011;352;48.626;9.238;2023-03-01T14:08:05;17.15;;;10.30;;
735;SDS011;352;48.626;9.238;2023-03-01T14:10:48;19.35;;;14.10;;
735;SDS011;352;48.626;9.238;2023-03-01T14:13:38;18.60;;;11.65;;
735;SDS011;352;48.626;9.238;2023-03-01T14:16:20;16.30;;;12.20;;
735;SDS011;352;48.626;9.238;2023-03-01T14:18:58;18.58;;;12.60;;
735;SDS011;352;48.626;9.238;2023-03-01T14:21:36;16.83;;;11.95;;
735;SDS011;352;48.626;9.238;2023-03-01T14:24:03;18.52;;;12.98;;
735;SDS011;352;48.626;9.238;2023-03-01T14:26:30;16.15;;;10.40;;
735;SDS011;352;48.626;9.238;2023-03-01T14:29:02;15.80;;;12.77;;
735;SDS011;352;48.626;9.238;2023-03-01T14:31:34;18.13;;;12.65;;
735;SDS011;352;48.626;9.238;2023-03-01T14:34:03;14.10;;;9.65;;
735;SDS011;352;48.626;9.238;2023-03-01T14:36:31;14.05;;;12.65;;
735;SDS011;352;48.626;9.238;2023-03-01T14:38:59;14.43;;;8.57;;
735;SDS011;352;48.626;9.238;2023-03-01T14:41:30;17.13;;;12.88;;
735;SDS011;352;48.626;9.238;2023-03-01T14:44:00;19.40;;;12.55;;
735;SDS011;352;48.626;9.238;2023-03-01T14:46:33;16.65;;;11.57;;
735;SDS011;352;48.626;9.238;2023-03-01T14:49:03;18.70;;;12.55;;
735;SDS011;352;48.626;9.238;2023-03-01T14:51:34;17.67;;;11.85;;
735;SDS011;352;48.626;9.238;2023-03-01T14:54:03;13.90;;;10.88;;
735;SDS011;352;48.626;9.238;2023-03-01T14:56:43;13.40;;;10.40;;
735;SDS011;352;48.626;9.238;2023-03-01T14:59:12;20.05;;;12.75;;
735;SDS011;352;48.626;9.238;2023-03-01T15:01:39;17.35;;;13.02;;
735;SDS011;352;48.626;9.238;2023-03-01T15:04:08;15.98;;;13.20;;
735;SDS011;352;48.626;9.238;2023-03-01T15:06:38;16.38;;;13.25;;
735;SDS011;352;48.626;9.238;2023-03-01T15:09:05;18.30;;;12.70;;
735;SDS011;352;48.626;9.238;2023-03-01T15:11:33;15.60;;;13.35;;
735;SDS011;352;48.626;9.238;2023-03-01T15:14:01;15.38;;;11.82;;
735;SDS011;352;48.626;9.238;2023-03-01T15:17:13;13.50;;;10.65;;
735;SDS011;352;48.626;9.238;2023-03-01T15:19:46;17.80;;;13.70;;
735;SDS011;352;48.626;9.238;2023-03-01T15:22:14;21.42;;;13.52;;
735;SDS011;352;48.626;9.238;2023-03-01T15:24:45;17.17;;;10.82;;
735;SDS011;352;48.626;9.238;2023-03-01T15:27:14;21.08;;;14.52;;
735;SDS011;352;48.626;9.238;2023-03-01T15:29:48;17.48;;;13.25;;
735;SDS011;352;48.626;9.238;2023-03-01T15:32:26;13.30;;;11.45;;
735;SDS011;352;48.626;9.238;2023-03-01T15:34:56;18.17;;;13.05;;
735;SDS011;352;48.626;9.238;2023-03-01T15:37:39;20.77;;;14.13;;
735;SDS011;352;48.626;9.238;2023-03-01T15:40:19;15.73;;;12.30;;
735;SDS011;352;48.626;9.238;2023-03-01T15:42:49;15.13;;;9.00;;
735;SDS011;352;48.626;9.238;2023-03-01T15:45:24;14.55;;;11.50;;
735;SDS011;352;48.626;9.238;2023-03-01T15:47:53;14.30;;;11.85;;
735;SDS011;352;48.626;9.238;2023-03-01T15:50:23;12.20;;;8.88;;
735;SDS011;352;48.626;9.238;2023-03-01T15:52:51;14.50;;;11.32;;